createdAt,value
2019-04-10T00:00:48.018Z,71.52
2019-04-10T00:01:27.796Z,71.48
2019-04-10T00:02:03.628Z,71.46
2019-04-10T00:02:39.779Z,71.57
2019-04-10T00:03:25.631Z,71.55
2019-04-10T00:03:53.050Z,71.51
2019-04-10T00:04:29.483Z,71.48
2019-04-10T00:05:06.055Z,71.80
2019-04-10T00:05:42.533Z,72.01
2019-04-10T00:06:18.614Z,71.42
2019-04-10T00:07:01.993Z,71.45
2019-04-10T00:07:31.343Z,71.30
2019-04-10T00:08:06.851Z,71.66
2019-04-10T00:08:42.305Z,71.24
2019-04-10T00:09:18.943Z,71.37
2019-04-10T00:09:55.164Z,71.31
2019-04-10T00:10:30.635Z,70.96
2019-04-10T00:11:06.073Z,71.27
2019-04-10T00:11:41.499Z,71.18
2019-04-10T00:12:17.726Z,71.12
2019-04-10T00:12:54.128Z,71.26
2019-04-10T00:13:29.695Z,70.67
2019-04-10T00:14:05.408Z,70.76
2019-04-10T00:14:40.868Z,70.90
2019-04-10T00:15:18.226Z,71.11
2019-04-10T00:15:53.594Z,71.12
2019-04-10T00:16:29.927Z,71.01
2019-04-10T00:17:06.842Z,70.46
2019-04-10T00:17:42.925Z,70.59
2019-04-10T00:18:20.002Z,70.84
2019-04-10T00:18:56.142Z,70.76
2019-04-10T00:19:31.629Z,70.67
2019-04-10T00:20:07.864Z,70.95
2019-04-10T00:20:43.488Z,71.16
2019-04-10T00:21:18.940Z,70.77
2019-04-10T00:21:54.392Z,70.75
2019-04-10T00:22:30.493Z,70.99
2019-04-10T00:23:06.799Z,71.02
2019-04-10T00:23:42.380Z,70.90
2019-04-10T00:24:17.874Z,70.77
2019-04-10T00:24:53.284Z,70.74
2019-04-10T00:25:29.186Z,70.92
2019-04-10T00:26:05.560Z,71.05
2019-04-10T00:26:41.688Z,71.02
2019-04-10T00:27:18.600Z,71.25
2019-04-10T00:27:54.847Z,71.37
2019-04-10T00:28:30.299Z,71.26
2019-04-10T00:29:05.814Z,70.95
2019-04-10T00:29:41.307Z,71.09
2019-04-10T00:30:16.759Z,71.06
2019-04-10T00:30:52.202Z,71.10
2019-04-10T00:31:27.713Z,71.04
2019-04-10T00:32:05.721Z,70.96
2019-04-10T00:32:40.539Z,70.70
2019-04-10T00:33:16.601Z,70.72
2019-04-10T00:33:52.071Z,70.64
2019-04-10T00:34:27.541Z,70.71
2019-04-10T00:35:02.904Z,70.82
2019-04-10T00:35:39.402Z,70.73
2019-04-10T00:36:16.009Z,71.24
2019-04-10T00:36:51.628Z,71.19
2019-04-10T00:37:29.975Z,71.11
2019-04-10T00:38:05.131Z,70.73
2019-04-10T00:38:40.665Z,70.71
2019-04-10T00:39:16.572Z,71.03
2019-04-10T00:39:53.025Z,70.62
2019-04-10T00:40:28.486Z,70.87
2019-04-10T00:41:04.025Z,70.59
2019-04-10T00:41:40.660Z,70.53
2019-04-10T00:42:16.867Z,70.43
2019-04-10T00:42:52.365Z,70.65
2019-04-10T00:43:28.281Z,70.34
2019-04-10T00:44:04.002Z,70.04
2019-04-10T00:44:39.644Z,70.19
2019-04-10T00:45:15.503Z,70.41
2019-04-10T00:45:51.435Z,70.23
2019-04-10T00:46:26.969Z,70.16
2019-04-10T00:47:02.496Z,70.22
2019-04-10T00:47:39.109Z,70.10
2019-04-10T00:48:15.484Z,69.62
2019-04-10T00:48:51.079Z,69.76
2019-04-10T00:49:26.483Z,69.76
2019-04-10T00:50:02.397Z,70.07
2019-04-10T00:50:38.921Z,70.07
2019-04-10T00:51:15.189Z,70.21
2019-04-10T00:51:50.668Z,69.73
2019-04-10T00:52:26.464Z,69.98
2019-04-10T00:53:02.911Z,70.16
2019-04-10T00:53:38.766Z,70.24
2019-04-10T00:54:14.693Z,70.29
2019-04-10T00:54:51.041Z,70.04
2019-04-10T00:55:26.505Z,70.16
2019-04-10T00:56:01.989Z,70.46
2019-04-10T00:56:37.371Z,70.46
2019-04-10T00:57:13.503Z,70.46
2019-04-10T00:57:49.814Z,70.18
2019-04-10T00:58:25.922Z,70.19
2019-04-10T00:59:01.772Z,70.38
2019-04-10T00:59:37.220Z,70.39
2019-04-10T01:00:12.874Z,70.31
2019-04-10T01:00:50.118Z,70.72
2019-04-10T01:01:25.666Z,70.72
2019-04-10T01:02:02.546Z,70.26
2019-04-10T01:02:38.332Z,69.75
2019-04-10T01:03:33.743Z,69.56
2019-04-10T01:04:10.572Z,69.92
2019-04-10T01:04:46.736Z,69.71
2019-04-10T01:05:22.877Z,69.72
2019-04-10T01:05:58.498Z,69.57
2019-04-10T01:06:33.908Z,69.41
2019-04-10T01:07:09.332Z,69.13
2019-04-10T01:07:46.074Z,69.62
2019-04-10T01:08:21.912Z,69.75
2019-04-10T01:08:57.482Z,69.90
2019-04-10T01:09:33.269Z,69.93
2019-04-10T01:10:08.809Z,70.50
2019-04-10T01:10:44.324Z,70.50
2019-04-10T01:11:21.064Z,70.31
2019-04-10T01:11:57.223Z,70.80
2019-04-10T01:12:32.642Z,71.07
2019-04-10T01:13:08.387Z,71.00
2019-04-10T01:13:45.259Z,70.79
2019-04-10T01:14:21.309Z,71.00
2019-04-10T01:14:56.778Z,71.23
2019-04-10T01:15:32.305Z,71.37
2019-04-10T01:16:07.743Z,71.64
2019-04-10T01:16:43.985Z,71.98
2019-04-10T01:17:19.475Z,71.72
2019-04-10T01:17:54.957Z,71.62
2019-04-10T01:18:31.049Z,71.61
2019-04-10T01:19:06.564Z,70.93
2019-04-10T01:19:41.990Z,70.93
2019-04-10T01:20:17.656Z,71.47
2019-04-10T01:20:53.592Z,71.74
2019-04-10T01:21:29.077Z,71.79
2019-04-10T01:22:04.621Z,71.84
2019-04-10T01:22:40.064Z,71.14
2019-04-10T01:23:16.083Z,72.08
2019-04-10T01:23:51.581Z,72.11
2019-04-10T01:24:27.918Z,72.05
2019-04-10T01:25:03.446Z,72.05
2019-04-10T01:25:38.853Z,71.92
2019-04-10T01:26:14.904Z,71.94
2019-04-10T01:26:51.698Z,72.00
2019-04-10T01:27:27.795Z,72.12
2019-04-10T01:28:03.279Z,72.30
2019-04-10T01:28:39.062Z,72.45
2019-04-10T01:29:15.505Z,72.34
2019-04-10T01:29:51.531Z,72.58
2019-04-10T01:30:27.069Z,72.69
2019-04-10T01:31:02.595Z,72.89
2019-04-10T01:31:39.444Z,72.76
2019-04-10T01:32:15.429Z,73.08
2019-04-10T01:32:50.997Z,73.45
2019-04-10T01:33:26.407Z,72.87
2019-04-10T01:34:01.820Z,72.58
2019-04-10T01:34:37.943Z,72.83
2019-04-10T01:35:14.130Z,72.47
2019-04-10T01:35:49.588Z,71.56
2019-04-10T01:36:24.989Z,72.07
2019-04-10T01:37:00.750Z,71.44
2019-04-10T01:37:48.588Z,72.56
2019-04-10T01:38:13.481Z,72.89
2019-04-10T01:38:49.516Z,73.39
2019-04-10T01:39:28.580Z,73.35
2019-04-10T01:40:04.547Z,73.44
2019-04-10T01:40:39.972Z,73.75
2019-04-10T01:41:15.507Z,73.85
2019-04-10T01:41:52.268Z,73.95
2019-04-10T01:42:28.402Z,73.68
2019-04-10T01:43:09.876Z,73.98
2019-04-10T01:43:41.381Z,74.11
2019-04-10T01:44:16.817Z,74.04
2019-04-10T01:44:53.137Z,73.87
2019-04-10T01:45:29.312Z,73.59
2019-04-10T01:46:04.716Z,73.24
2019-04-10T01:46:40.515Z,72.77
2019-04-10T01:47:17.176Z,73.83
2019-04-10T01:47:53.294Z,73.83
2019-04-10T01:48:29.868Z,73.00
2019-04-10T01:49:05.552Z,73.33
2019-04-10T01:49:41.879Z,72.86
2019-04-10T01:50:17.999Z,72.88
2019-04-10T01:50:53.492Z,72.79
2019-04-10T01:51:28.906Z,72.67
2019-04-10T01:52:05.243Z,72.77
2019-04-10T01:52:41.445Z,72.85
2019-04-10T01:53:17.595Z,73.21
2019-04-10T01:53:52.998Z,73.04
2019-04-10T01:54:28.413Z,72.87
2019-04-10T01:55:18.176Z,72.93
2019-04-10T01:55:40.984Z,72.44
2019-04-10T01:56:27.034Z,73.00
2019-04-10T01:56:53.737Z,72.28
2019-04-10T01:57:29.167Z,73.00
2019-04-10T01:58:07.197Z,72.33
2019-04-10T01:58:44.077Z,72.63
2019-04-10T01:59:21.537Z,71.98
2019-04-10T01:59:56.958Z,72.02
2019-04-10T02:00:33.030Z,72.02
2019-04-10T02:01:15.021Z,72.00
2019-04-10T02:01:53.923Z,71.94
2019-04-10T02:02:49.643Z,71.81
2019-04-10T02:03:25.709Z,72.17
2019-04-10T02:04:01.228Z,71.76
2019-04-10T02:04:36.631Z,71.79
2019-04-10T02:05:14.479Z,72.12
2019-04-10T02:05:49.991Z,72.09
2019-04-10T02:06:25.398Z,72.30
2019-04-10T02:07:02.154Z,72.04
2019-04-10T02:07:38.239Z,71.85
2019-04-10T02:08:16.064Z,71.81
2019-04-10T02:08:50.987Z,71.74
2019-04-10T02:09:27.618Z,71.55
2019-04-10T02:10:03.660Z,71.81
2019-04-10T02:10:40.470Z,71.12
2019-04-10T02:11:16.061Z,70.96
2019-04-10T02:11:52.348Z,71.41
2019-04-10T02:12:28.421Z,71.67
2019-04-10T02:13:05.305Z,71.90
2019-04-10T02:13:41.333Z,71.90
2019-04-10T02:14:16.805Z,71.90
2019-04-10T02:14:52.364Z,71.97
2019-04-10T02:15:28.092Z,71.45
2019-04-10T02:16:03.908Z,71.54
2019-04-10T02:16:41.042Z,71.59
2019-04-10T02:17:17.003Z,72.13
2019-04-10T02:17:52.955Z,72.17
2019-04-10T02:18:28.450Z,71.67
2019-04-10T02:19:03.888Z,71.50
2019-04-10T02:19:40.589Z,71.38
2019-04-10T02:20:16.387Z,71.59
2019-04-10T02:20:51.820Z,70.99
2019-04-10T02:21:27.570Z,71.27
2019-04-10T02:22:03.138Z,70.73
2019-04-10T02:22:38.564Z,71.06
2019-04-10T02:23:14.185Z,70.95
2019-04-10T02:23:50.301Z,71.19
2019-04-10T02:24:25.805Z,71.25
2019-04-10T02:25:01.241Z,70.87
2019-04-10T02:25:36.985Z,70.99
2019-04-10T02:26:13.591Z,71.30
2019-04-10T02:26:49.829Z,71.34
2019-04-10T02:27:25.274Z,71.21
2019-04-10T02:28:00.686Z,70.79
2019-04-10T02:28:37.437Z,71.33
2019-04-10T02:29:12.916Z,71.38
2019-04-10T02:29:48.677Z,70.29
2019-04-10T02:30:25.972Z,70.42
2019-04-10T02:31:02.847Z,70.63
2019-04-10T02:31:39.167Z,70.38
2019-04-10T02:32:16.604Z,70.33
2019-04-10T02:32:52.874Z,70.76
2019-04-10T02:33:29.463Z,70.58
2019-04-10T02:34:07.007Z,70.62
2019-04-10T02:34:43.847Z,70.17
2019-04-10T02:35:23.720Z,70.31
2019-04-10T02:35:58.972Z,69.95
2019-04-10T02:36:36.196Z,71.60
2019-04-10T02:37:15.289Z,71.62
2019-04-10T02:37:55.438Z,71.11
2019-04-10T02:38:43.351Z,71.00
2019-04-10T02:39:17.826Z,70.74
2019-04-10T02:39:47.920Z,69.76
2019-04-10T02:40:21.342Z,69.62
2019-04-10T02:40:57.490Z,69.98
2019-04-10T02:41:34.612Z,70.09
2019-04-10T02:42:10.857Z,70.42
2019-04-10T02:42:47.374Z,70.43
2019-04-10T02:43:23.391Z,70.68
2019-04-10T02:43:59.964Z,70.47
2019-04-10T02:44:35.668Z,70.45
2019-04-10T02:45:12.661Z,70.29
2019-04-10T02:45:49.418Z,70.62
2019-04-10T02:46:25.104Z,70.72
2019-04-10T02:47:01.991Z,70.57
2019-04-10T02:47:38.920Z,70.98
2019-04-10T02:48:15.028Z,70.65
2019-04-10T02:48:51.965Z,69.88
2019-04-10T02:49:28.074Z,70.77
2019-04-10T02:50:06.101Z,70.77
2019-04-10T02:50:40.891Z,70.78
2019-04-10T02:51:17.602Z,70.65
2019-04-10T02:51:54.837Z,70.82
2019-04-10T02:52:30.795Z,71.15
2019-04-10T02:53:07.795Z,70.25
2019-04-10T02:53:43.916Z,70.92
2019-04-10T02:54:21.205Z,70.50
2019-04-10T02:54:57.827Z,70.91
2019-04-10T02:55:33.460Z,71.23
2019-04-10T02:56:09.110Z,71.26
2019-04-10T02:56:45.795Z,71.39
2019-04-10T02:57:22.052Z,71.27
2019-04-10T02:57:58.735Z,70.80
2019-04-10T02:58:34.737Z,70.77
2019-04-10T02:59:11.240Z,71.30
2019-04-10T02:59:47.111Z,71.15
2019-04-10T03:00:24.342Z,70.65
2019-04-10T03:01:01.310Z,70.74
2019-04-10T03:01:37.938Z,70.96
2019-04-10T03:02:14.106Z,70.62
2019-04-10T03:02:51.638Z,70.69
2019-04-10T03:03:27.641Z,70.79
2019-04-10T03:04:03.463Z,71.01
2019-04-10T03:04:40.520Z,71.01
2019-04-10T03:05:17.620Z,70.19
2019-04-10T03:05:54.249Z,70.03
2019-04-10T03:06:30.992Z,70.70
2019-04-10T03:07:07.625Z,71.21
2019-04-10T03:07:44.329Z,70.42
2019-04-10T03:08:37.103Z,69.84
2019-04-10T03:09:11.933Z,70.72
2019-04-10T03:09:49.410Z,70.65
2019-04-10T03:10:24.551Z,70.59
2019-04-10T03:10:56.045Z,70.69
2019-04-10T03:11:28.037Z,69.64
2019-04-10T03:12:03.849Z,69.30
2019-04-10T03:12:40.983Z,69.93
2019-04-10T03:13:17.890Z,69.49
2019-04-10T03:13:53.749Z,69.82
2019-04-10T03:14:32.526Z,70.37
2019-04-10T03:15:10.536Z,70.92
2019-04-10T03:15:47.496Z,70.57
2019-04-10T03:16:23.655Z,70.09
2019-04-10T03:16:59.800Z,70.09
2019-04-10T03:17:36.632Z,70.26
2019-04-10T03:18:12.732Z,69.97
2019-04-10T03:18:49.286Z,70.00
2019-04-10T03:19:25.529Z,70.09
2019-04-10T03:20:02.231Z,70.09
2019-04-10T03:20:38.470Z,70.30
2019-04-10T03:21:15.249Z,69.61
2019-04-10T03:21:51.391Z,69.47
2019-04-10T03:22:27.590Z,70.05
2019-04-10T03:23:03.211Z,70.26
2019-04-10T03:23:38.633Z,70.06
2019-04-10T03:24:15.037Z,70.02
2019-04-10T03:24:50.827Z,69.27
2019-04-10T03:25:26.736Z,70.24
2019-04-10T03:26:02.267Z,70.02
2019-04-10T03:26:39.492Z,69.67
2019-04-10T03:27:15.076Z,70.28
2019-04-10T03:27:50.858Z,68.99
2019-04-10T03:28:27.084Z,69.45
2019-04-10T03:29:03.221Z,69.50
2019-04-10T03:29:38.782Z,69.57
2019-04-10T03:30:15.305Z,69.80
2019-04-10T03:30:51.065Z,69.64
2019-04-10T03:31:27.748Z,69.53
2019-04-10T03:32:23.741Z,68.90
2019-04-10T03:33:31.162Z,68.88
2019-04-10T03:34:28.473Z,70.26
2019-04-10T03:35:08.489Z,70.26
2019-04-10T03:35:49.570Z,69.22
2019-04-10T03:36:27.387Z,69.22
2019-04-10T03:37:02.982Z,69.60
2019-04-10T03:37:40.334Z,69.41
2019-04-10T03:38:16.196Z,69.41
2019-04-10T03:38:58.573Z,69.63
2019-04-10T03:39:31.710Z,70.33
2019-04-10T03:40:07.023Z,70.25
2019-04-10T03:40:42.526Z,69.44
2019-04-10T03:41:17.954Z,69.91
2019-04-10T03:41:53.395Z,70.44
2019-04-10T03:42:28.819Z,69.95
2019-04-10T03:43:04.213Z,69.69
2019-04-10T03:43:39.617Z,69.81
2019-04-10T03:44:15.155Z,70.25
2019-04-10T03:44:51.398Z,69.94
2019-04-10T03:45:27.203Z,69.42
2019-04-10T03:46:03.314Z,68.86
2019-04-10T03:46:40.162Z,68.75
2019-04-10T03:47:15.741Z,68.87
2019-04-10T03:47:51.511Z,69.85
2019-04-10T03:48:27.951Z,70.12
2019-04-10T03:49:03.372Z,69.68
2019-04-10T03:49:40.085Z,69.90
2019-04-10T03:50:16.327Z,69.67
2019-04-10T03:50:52.159Z,69.97
2019-04-10T03:51:28.303Z,69.83
2019-04-10T03:52:03.771Z,69.57
2019-04-10T03:52:39.216Z,70.01
2019-04-10T03:53:14.718Z,69.48
2019-04-10T03:53:50.858Z,70.18
2019-04-10T03:54:26.287Z,69.85
2019-04-10T03:55:02.798Z,70.42
2019-04-10T03:55:38.328Z,70.57
2019-04-10T03:56:13.883Z,70.38
2019-04-10T03:56:50.022Z,70.33
2019-04-10T03:57:26.604Z,70.41
2019-04-10T03:58:02.854Z,69.89
2019-04-10T03:58:38.461Z,70.41
2019-04-10T03:59:14.004Z,70.37
2019-04-10T03:59:49.718Z,70.12
2019-04-10T04:00:25.879Z,70.20
2019-04-10T04:01:01.437Z,70.27
2019-04-10T04:01:36.842Z,69.84
2019-04-10T04:02:12.302Z,69.97
2019-04-10T04:02:48.318Z,70.75
2019-04-10T04:03:24.691Z,70.66
2019-04-10T04:04:00.159Z,70.34
2019-04-10T04:04:35.892Z,70.74
2019-04-10T04:05:11.434Z,70.86
2019-04-10T04:05:47.337Z,70.32
2019-04-10T04:06:23.728Z,69.78
2019-04-10T04:06:59.893Z,69.58
2019-04-10T04:07:36.732Z,69.70
2019-04-10T04:08:13.108Z,69.28
2019-04-10T04:09:00.914Z,69.76
2019-04-10T04:09:25.933Z,70.00
2019-04-10T04:10:02.569Z,69.87
2019-04-10T04:10:38.096Z,69.62
2019-04-10T04:11:13.545Z,69.48
2019-04-10T04:11:50.290Z,69.85
2019-04-10T04:12:26.638Z,69.95
2019-04-10T04:13:04.882Z,69.88
2019-04-10T04:13:39.703Z,70.22
2019-04-10T04:14:16.463Z,70.05
2019-04-10T04:14:52.725Z,69.52
2019-04-10T04:15:28.274Z,70.32
2019-04-10T04:16:03.666Z,70.10
2019-04-10T04:16:39.439Z,69.81
2019-04-10T04:17:15.766Z,69.74
2019-04-10T04:17:51.362Z,69.57
2019-04-10T04:18:26.964Z,70.91
2019-04-10T04:19:03.825Z,70.50
2019-04-10T04:19:39.979Z,70.19
2019-04-10T04:20:15.648Z,70.36
2019-04-10T04:20:52.952Z,70.11
2019-04-10T04:21:28.389Z,70.28
2019-04-10T04:22:04.043Z,70.17
2019-04-10T04:22:41.118Z,69.54
2019-04-10T04:23:17.192Z,70.40
2019-04-10T04:23:53.284Z,69.89
2019-04-10T04:24:28.703Z,70.45
2019-04-10T04:25:04.589Z,70.00
2019-04-10T04:25:40.733Z,70.54
2019-04-10T04:26:16.974Z,70.19
2019-04-10T04:26:53.034Z,70.67
2019-04-10T04:27:29.263Z,70.07
2019-04-10T04:28:04.698Z,69.87
2019-04-10T04:28:40.203Z,69.80
2019-04-10T04:29:16.408Z,69.94
2019-04-10T04:29:52.305Z,70.50
2019-04-10T04:30:28.011Z,70.66
2019-04-10T04:31:03.441Z,70.45
2019-04-10T04:31:39.899Z,70.38
2019-04-10T04:32:15.623Z,70.21
2019-04-10T04:32:51.411Z,70.04
2019-04-10T04:33:27.654Z,69.73
2019-04-10T04:34:04.037Z,70.16
2019-04-10T04:34:39.460Z,69.51
2019-04-10T04:35:15.387Z,69.57
2019-04-10T04:35:51.162Z,69.73
2019-04-10T04:36:26.764Z,70.20
2019-04-10T04:37:02.902Z,69.16
2019-04-10T04:37:38.403Z,69.29
2019-04-10T04:38:13.930Z,69.74
2019-04-10T04:38:49.379Z,69.85
2019-04-10T04:39:28.112Z,69.95
2019-04-10T04:40:03.052Z,69.92
2019-04-10T04:40:38.788Z,69.70
2019-04-10T04:41:15.409Z,69.95
2019-04-10T04:41:50.881Z,69.84
2019-04-10T04:42:26.517Z,70.36
2019-04-10T04:43:02.159Z,70.08
2019-04-10T04:43:37.598Z,69.71
2019-04-10T04:44:14.494Z,69.87
2019-04-10T04:44:50.130Z,69.39
2019-04-10T04:45:25.732Z,69.38
2019-04-10T04:46:01.278Z,69.24
2019-04-10T04:46:37.078Z,69.66
2019-04-10T04:47:13.382Z,69.43
2019-04-10T04:47:48.894Z,69.72
2019-04-10T04:48:24.387Z,69.49
2019-04-10T04:49:00.037Z,69.56
2019-04-10T04:49:35.815Z,68.80
2019-04-10T04:50:11.928Z,68.97
2019-04-10T04:50:47.406Z,69.07
2019-04-10T04:51:23.171Z,69.26
2019-04-10T04:51:58.593Z,69.12
2019-04-10T04:52:34.988Z,69.54
2019-04-10T04:53:10.738Z,69.69
2019-04-10T04:53:46.737Z,69.39
2019-04-10T04:54:23.099Z,68.51
2019-04-10T04:54:58.764Z,68.51
2019-04-10T04:55:35.192Z,69.82
2019-04-10T04:56:11.483Z,69.96
2019-04-10T04:56:47.075Z,69.54
2019-04-10T04:57:22.704Z,69.10
2019-04-10T04:57:58.174Z,69.10
2019-04-10T04:58:34.003Z,70.11
2019-04-10T04:59:10.182Z,70.11
2019-04-10T04:59:46.086Z,69.89
2019-04-10T05:00:21.596Z,68.64
2019-04-10T05:00:56.978Z,69.13
2019-04-10T05:01:32.392Z,69.54
2019-04-10T05:02:07.970Z,69.43
2019-04-10T05:02:43.445Z,69.19
2019-04-10T05:03:18.930Z,68.66
2019-04-10T05:03:55.090Z,68.63
2019-04-10T05:04:32.323Z,68.93
2019-04-10T05:05:08.667Z,69.08
2019-04-10T05:05:44.234Z,69.08
2019-04-10T05:06:20.111Z,68.61
2019-04-10T05:06:55.716Z,68.15
2019-04-10T05:07:31.314Z,69.15
2019-04-10T05:08:07.404Z,69.53
2019-04-10T05:08:43.897Z,69.53
2019-04-10T05:09:29.854Z,69.30
2019-04-10T05:09:59.048Z,70.01
2019-04-10T05:10:33.811Z,69.75
2019-04-10T05:11:09.847Z,69.79
2019-04-10T05:11:45.433Z,69.61
2019-04-10T05:12:21.395Z,70.21
2019-04-10T05:12:57.840Z,70.14
2019-04-10T05:13:33.323Z,70.33
2019-04-10T05:14:08.738Z,69.26
2019-04-10T05:14:44.173Z,69.37
2019-04-10T05:15:20.598Z,69.81
2019-04-10T05:15:57.557Z,70.06
2019-04-10T05:16:33.054Z,69.81
2019-04-10T05:17:08.506Z,69.53
2019-04-10T05:17:44.984Z,69.53
2019-04-10T05:18:21.228Z,69.71
2019-04-10T05:18:56.714Z,70.42
2019-04-10T05:19:32.226Z,70.34
2019-04-10T05:20:07.857Z,70.48
2019-04-10T05:20:47.199Z,70.37
2019-04-10T05:21:21.343Z,70.68
2019-04-10T05:21:57.471Z,69.80
2019-04-10T05:22:34.024Z,69.80
2019-04-10T05:23:10.282Z,70.67
2019-04-10T05:23:45.793Z,70.67
2019-04-10T05:24:22.002Z,70.56
2019-04-10T05:24:57.865Z,70.56
2019-04-10T05:25:34.405Z,70.77
2019-04-10T05:26:10.191Z,70.28
2019-04-10T05:26:46.759Z,70.42
2019-04-10T05:27:22.643Z,70.42
2019-04-10T05:27:58.026Z,70.33
2019-04-10T05:28:33.444Z,70.33
2019-04-10T05:29:09.025Z,70.20
2019-04-10T05:29:45.050Z,70.04
2019-04-10T05:30:20.728Z,70.98
2019-04-10T05:30:56.853Z,69.99
2019-04-10T05:31:32.375Z,69.99
2019-04-10T05:32:07.790Z,70.84
2019-04-10T05:32:43.803Z,71.40
2019-04-10T05:33:20.413Z,71.40
2019-04-10T05:33:56.122Z,71.45
2019-04-10T05:34:31.797Z,71.41
2019-04-10T05:35:09.042Z,71.41
2019-04-10T05:35:44.605Z,71.29
2019-04-10T05:36:20.201Z,70.85
2019-04-10T05:36:56.758Z,70.07
2019-04-10T05:37:32.373Z,70.69
2019-04-10T05:38:08.022Z,70.69
2019-04-10T05:38:43.990Z,70.35
2019-04-10T05:39:19.589Z,69.84
2019-04-10T05:39:55.360Z,69.84
2019-04-10T05:40:33.117Z,70.43
2019-04-10T05:41:09.128Z,70.00
2019-04-10T05:41:44.644Z,70.50
2019-04-10T05:42:20.606Z,70.78
2019-04-10T05:42:57.264Z,70.41
2019-04-10T05:43:32.875Z,70.19
2019-04-10T05:44:08.300Z,70.19
2019-04-10T05:44:44.401Z,70.37
2019-04-10T05:45:21.149Z,69.66
2019-04-10T05:45:57.182Z,69.66
2019-04-10T05:46:32.701Z,69.92
2019-04-10T05:47:08.105Z,69.86
2019-04-10T05:47:44.431Z,70.19
2019-04-10T05:48:22.460Z,70.88
2019-04-10T05:48:57.957Z,71.09
2019-04-10T05:49:33.345Z,70.55
2019-04-10T05:50:09.090Z,70.55
2019-04-10T05:50:53.847Z,70.01
2019-04-10T05:51:23.248Z,69.62
2019-04-10T05:51:59.027Z,70.09
2019-04-10T05:52:35.343Z,70.58
2019-04-10T05:53:11.897Z,70.58
2019-04-10T05:53:49.898Z,70.37
2019-04-10T05:54:24.723Z,70.76
2019-04-10T05:55:00.372Z,70.92
2019-04-10T05:55:36.489Z,70.92
2019-04-10T05:56:12.088Z,69.59
2019-04-10T05:56:47.590Z,70.24
2019-04-10T05:57:23.042Z,71.00
2019-04-10T05:57:59.448Z,71.00
2019-04-10T05:58:35.568Z,70.52
2019-04-10T05:59:12.287Z,71.07
2019-04-10T05:59:49.089Z,71.07
2019-04-10T06:00:24.975Z,70.63
2019-04-10T06:01:02.382Z,70.83
2019-04-10T06:01:40.896Z,70.18
2019-04-10T06:02:15.824Z,70.49
2019-04-10T06:02:52.179Z,70.49
2019-04-10T06:03:28.229Z,71.08
2019-04-10T06:04:05.061Z,70.55
2019-04-10T06:04:41.199Z,70.55
2019-04-10T06:05:18.146Z,70.50
2019-04-10T06:05:54.287Z,71.03
2019-04-10T06:06:30.653Z,71.03
2019-04-10T06:07:06.077Z,70.56
2019-04-10T06:07:41.539Z,71.14
2019-04-10T06:08:17.932Z,70.45
2019-04-10T06:08:53.570Z,70.45
2019-04-10T06:09:29.016Z,71.19
2019-04-10T06:10:08.486Z,70.82
2019-04-10T06:10:42.292Z,70.82
2019-04-10T06:11:17.749Z,71.22
2019-04-10T06:11:53.265Z,71.22
2019-04-10T06:12:28.697Z,71.06
2019-04-10T06:13:04.149Z,70.87
2019-04-10T06:13:40.912Z,71.84
2019-04-10T06:14:16.374Z,71.51
2019-04-10T06:14:52.793Z,70.59
2019-04-10T06:15:28.799Z,70.88
2019-04-10T06:16:04.190Z,70.88
2019-04-10T06:16:40.568Z,71.33
2019-04-10T06:17:16.454Z,71.54
2019-04-10T06:17:51.956Z,71.94
2019-04-10T06:18:27.721Z,71.38
2019-04-10T06:19:03.949Z,70.75
2019-04-10T06:19:40.491Z,70.75
2019-04-10T06:20:17.457Z,71.61
2019-04-10T06:20:54.598Z,71.61
2019-04-10T06:21:31.424Z,70.59
2019-04-10T06:22:09.496Z,71.56
2019-04-10T06:22:45.501Z,70.75
2019-04-10T06:23:21.284Z,70.75
2019-04-10T06:23:58.240Z,70.73
2019-04-10T06:24:33.923Z,71.16
2019-04-10T06:25:12.889Z,70.57
2019-04-10T06:25:47.743Z,70.57
2019-04-10T06:26:23.726Z,71.17
2019-04-10T06:27:00.027Z,70.93
2019-04-10T06:27:36.646Z,71.63
2019-04-10T06:28:12.975Z,71.86
2019-04-10T06:28:48.579Z,70.80
2019-04-10T06:29:24.347Z,70.80
2019-04-10T06:30:00.205Z,70.24
2019-04-10T06:30:36.303Z,70.74
2019-04-10T06:31:12.528Z,70.74
2019-04-10T06:31:49.219Z,71.12
2019-04-10T06:32:25.483Z,72.14
2019-04-10T06:33:02.162Z,72.14
2019-04-10T06:33:38.175Z,71.41
2019-04-10T06:34:15.992Z,71.98
2019-04-10T06:34:51.250Z,71.94
2019-04-10T06:35:28.086Z,71.94
2019-04-10T06:36:04.893Z,71.86
2019-04-10T06:36:41.622Z,71.99
2019-04-10T06:37:17.761Z,71.99
2019-04-10T06:37:53.306Z,72.04
2019-04-10T06:38:28.805Z,71.94
2019-04-10T06:39:06.719Z,71.80
2019-04-10T06:39:44.499Z,71.77
2019-04-10T06:40:22.577Z,71.77
2019-04-10T06:40:57.851Z,71.78
2019-04-10T06:41:33.380Z,71.78
2019-04-10T06:42:08.800Z,71.92
2019-04-10T06:42:49.754Z,71.68
2019-04-10T06:43:22.564Z,71.72
2019-04-10T06:43:59.159Z,71.72
2019-04-10T06:44:34.606Z,72.53
2019-04-10T06:45:11.458Z,71.73
2019-04-10T06:45:46.950Z,71.73
2019-04-10T06:46:24.236Z,71.41
2019-04-10T06:47:00.037Z,71.85
2019-04-10T06:47:36.188Z,72.16
2019-04-10T06:48:13.060Z,72.16
2019-04-10T06:48:48.597Z,72.11
2019-04-10T06:49:24.878Z,72.11
2019-04-10T06:50:00.939Z,71.32
2019-04-10T06:50:37.104Z,72.52
2019-04-10T06:51:12.696Z,72.52
2019-04-10T06:51:49.411Z,71.68
2019-04-10T06:52:25.091Z,71.68
2019-04-10T06:53:00.549Z,72.12
2019-04-10T06:53:35.979Z,70.94
2019-04-10T06:54:12.951Z,71.05
2019-04-10T06:54:49.084Z,71.66
2019-04-10T06:55:24.569Z,72.08
2019-04-10T06:56:00.706Z,71.85
2019-04-10T06:56:37.435Z,71.83
2019-04-10T06:57:13.015Z,71.40
2019-04-10T06:57:54.428Z,71.40
2019-04-10T06:58:25.622Z,71.66
2019-04-10T06:59:01.106Z,71.66
2019-04-10T06:59:37.694Z,71.61
2019-04-10T07:00:16.714Z,71.61
2019-04-10T07:00:53.839Z,70.98
2019-04-10T07:01:39.460Z,70.98
2019-04-10T07:02:16.669Z,71.72
2019-04-10T07:02:44.373Z,72.07
2019-04-10T07:03:21.093Z,72.27
2019-04-10T07:04:03.633Z,72.30
2019-04-10T07:04:44.174Z,73.13
2019-04-10T07:05:12.377Z,72.33
2019-04-10T07:06:03.281Z,72.33
2019-04-10T07:06:39.607Z,72.27
2019-04-10T07:07:07.777Z,72.27
2019-04-10T07:07:49.490Z,72.27
2019-04-10T07:08:22.201Z,72.32
2019-04-10T07:08:55.314Z,71.93
2019-04-10T07:09:31.855Z,72.07
2019-04-10T07:10:21.510Z,72.11
2019-04-10T07:10:54.165Z,72.22
2019-04-10T07:11:27.613Z,72.22
2019-04-10T07:12:01.744Z,71.90
2019-04-10T07:12:39.929Z,71.90
2019-04-10T07:13:15.740Z,71.58
2019-04-10T07:13:53.780Z,71.63
2019-04-10T07:14:28.898Z,71.22
2019-04-10T07:15:04.871Z,70.83
2019-04-10T07:15:42.885Z,70.83
2019-04-10T07:16:17.981Z,71.16
2019-04-10T07:16:54.897Z,71.16
2019-04-10T07:17:35.598Z,71.21
2019-04-10T07:18:12.648Z,71.21
2019-04-10T07:18:47.795Z,71.48
2019-04-10T07:19:22.132Z,71.59
2019-04-10T07:19:57.646Z,70.92
2019-04-10T07:20:33.678Z,70.54
2019-04-10T07:21:10.554Z,70.44
2019-04-10T07:21:47.097Z,69.59
2019-04-10T07:22:22.945Z,70.22
2019-04-10T07:22:59.545Z,70.91
2019-04-10T07:23:35.123Z,70.68
2019-04-10T07:24:12.169Z,70.68
2019-04-10T07:24:48.220Z,70.73
2019-04-10T07:25:23.858Z,69.85
2019-04-10T07:25:59.347Z,69.85
2019-04-10T07:26:40.078Z,70.85
2019-04-10T07:27:12.523Z,70.97
2019-04-10T07:27:48.273Z,70.97
2019-04-10T07:28:23.848Z,70.14
2019-04-10T07:29:00.580Z,70.14
2019-04-10T07:29:36.358Z,70.74
2019-04-10T07:30:12.010Z,71.46
2019-04-10T07:30:47.802Z,71.46
2019-04-10T07:31:23.535Z,70.47
2019-04-10T07:32:00.437Z,70.51
2019-04-10T07:32:36.181Z,70.51
2019-04-10T07:33:14.843Z,70.74
2019-04-10T07:33:50.757Z,70.74
2019-04-10T07:34:28.544Z,70.30
2019-04-10T07:35:03.712Z,70.40
2019-04-10T07:35:40.262Z,70.40
2019-04-10T07:36:16.098Z,69.97
2019-04-10T07:36:51.978Z,70.30
2019-04-10T07:37:28.504Z,70.84
2019-04-10T07:38:04.056Z,69.92
2019-04-10T07:38:39.513Z,70.94
2019-04-10T07:39:15.161Z,70.07
2019-04-10T07:39:51.019Z,69.81
2019-04-10T07:40:26.410Z,69.81
2019-04-10T07:41:06.309Z,69.19
2019-04-10T07:41:39.696Z,70.02
2019-04-10T07:42:25.890Z,70.02
2019-04-10T07:42:52.567Z,70.24
2019-04-10T07:43:29.490Z,70.02
2019-04-10T07:44:05.863Z,70.02
2019-04-10T07:44:41.520Z,70.50
2019-04-10T07:45:18.057Z,69.77
2019-04-10T07:45:56.633Z,70.06
2019-04-10T07:46:31.217Z,70.06
2019-04-10T07:47:07.092Z,70.03
2019-04-10T07:47:42.628Z,70.45
2019-04-10T07:48:18.469Z,70.44